createdAt,value
2023-02-08T00:01:20.952Z,-2.50
2023-02-08T00:04:25.866Z,-2.60
2023-02-08T00:07:29.387Z,-2.60
2023-02-08T00:10:32.904Z,-2.50
2023-02-08T00:13:36.381Z,-2.60
2023-02-08T00:16:39.574Z,-2.60
2023-02-08T00:19:44.207Z,-2.60
2023-02-08T00:22:47.336Z,-2.60
2023-02-08T00:25:50.900Z,-2.60
2023-02-08T00:28:54.424Z,-2.60
2023-02-08T00:31:57.673Z,-2.60
2023-02-08T00:35:02.221Z,-2.60
2023-02-08T00:38:05.908Z,-2.70
2023-02-08T00:41:09.158Z,-2.70
2023-02-08T00:44:12.328Z,-2.70
2023-02-08T00:47:17.367Z,-2.70
2023-02-08T00:50:22.257Z,-2.80
2023-02-08T00:53:25.392Z,-2.80
2023-02-08T00:56:28.601Z,-2.80
2023-02-08T00:59:31.835Z,-2.80
2023-02-08T01:02:35.030Z,-2.80
2023-02-08T01:05:40.451Z,-2.80
2023-02-08T01:08:45.155Z,-2.80
2023-02-08T01:11:48.393Z,-2.80
2023-02-08T01:14:52.660Z,-2.80
2023-02-08T01:17:56.376Z,-2.80
2023-02-08T01:21:09.956Z,-2.80
2023-02-08T01:24:17.775Z,-2.80
2023-02-08T01:27:21.004Z,-2.80
2023-02-08T01:30:27.024Z,-2.80
2023-02-08T01:33:30.174Z,-2.90
2023-02-08T01:36:35.395Z,-2.90
2023-02-08T01:39:38.911Z,-2.90
2023-02-08T01:42:42.111Z,-2.90
2023-02-08T01:45:45.416Z,-2.90
2023-02-08T01:48:49.535Z,-2.90
2023-02-08T01:52:01.604Z,-2.90
2023-02-08T01:55:10.911Z,-2.90
2023-02-08T01:58:15.056Z,-2.90
2023-02-08T02:01:18.938Z,-3.00
2023-02-08T02:04:22.957Z,-3.00
2023-02-08T02:07:30.712Z,-3.00
2023-02-08T02:10:36.038Z,-3.00
2023-02-08T02:13:39.356Z,-3.00
2023-02-08T02:16:42.669Z,-3.00
2023-02-08T02:19:53.835Z,-3.00
2023-02-08T02:23:37.158Z,-3.10
2023-02-08T02:27:10.638Z,-3.10
2023-02-08T02:30:58.556Z,-3.20
2023-02-08T02:34:09.590Z,-3.20
2023-02-08T02:37:27.111Z,-3.10
2023-02-08T02:40:37.243Z,-3.20
2023-02-08T02:43:46.573Z,-3.20
2023-02-08T02:46:57.575Z,-3.20
2023-02-08T02:50:08.086Z,-3.30
2023-02-08T02:53:18.043Z,-3.30
2023-02-08T02:56:24.557Z,-3.20
2023-02-08T02:59:29.157Z,-3.20
2023-02-08T03:02:32.759Z,-3.20
2023-02-08T03:05:37.540Z,-3.40
2023-02-08T03:09:19.390Z,-3.40
2023-02-08T03:12:35.276Z,-3.40
2023-02-08T03:15:50.718Z,-3.40
2023-02-08T03:19:07.840Z,-3.50
2023-02-08T03:22:18.278Z,-3.50
2023-02-08T03:25:27.641Z,-3.50
2023-02-08T03:28:36.980Z,-3.60
2023-02-08T03:31:47.284Z,-3.60
2023-02-08T03:34:55.129Z,-3.60
2023-02-08T03:38:04.633Z,-3.60
2023-02-08T03:41:11.845Z,-3.60
2023-02-08T03:44:20.183Z,-3.60
2023-02-08T03:47:26.464Z,-3.60
2023-02-08T03:50:34.799Z,-3.60
2023-02-08T03:53:43.296Z,-3.60
2023-02-08T03:56:53.431Z,-3.60
2023-02-08T04:00:01.142Z,-3.60
2023-02-08T04:03:08.215Z,-3.60
2023-02-08T04:06:11.622Z,-3.60
2023-02-08T04:09:16.299Z,-3.70
2023-02-08T04:12:20.089Z,-3.70
2023-02-08T04:15:23.551Z,-3.70
2023-02-08T04:18:26.923Z,-3.70
2023-02-08T04:21:30.408Z,-3.70
2023-02-08T04:24:35.231Z,-3.80
2023-02-08T04:27:38.540Z,-3.80
2023-02-08T04:30:43.196Z,-3.80
2023-02-08T04:33:46.638Z,-3.80
2023-02-08T04:36:49.984Z,-3.90
2023-02-08T04:39:54.383Z,-3.90
2023-02-08T04:42:57.900Z,-4.00
2023-02-08T04:46:00.921Z,-4.00
2023-02-08T04:49:04.187Z,-4.00
2023-02-08T04:52:07.399Z,-4.00
2023-02-08T04:55:12.067Z,-3.90
2023-02-08T04:58:15.246Z,-4.00
2023-02-08T05:01:18.461Z,-4.00
2023-02-08T05:04:21.690Z,-4.00
2023-02-08T05:07:25.236Z,-4.00
2023-02-08T05:10:29.833Z,-3.90
2023-02-08T05:13:33.048Z,-3.90
2023-02-08T05:16:36.075Z,-4.00
2023-02-08T05:19:39.227Z,-4.00
2023-02-08T05:22:42.381Z,-4.00
2023-02-08T05:25:47.019Z,-4.00
2023-02-08T05:28:50.431Z,-4.00
2023-02-08T05:31:53.682Z,-4.00
2023-02-08T05:34:56.830Z,-4.00
2023-02-08T05:38:22.613Z,-4.00
2023-02-08T05:41:27.167Z,-4.10
2023-02-08T05:44:30.285Z,-4.10
2023-02-08T05:47:33.352Z,-4.10
2023-02-08T05:50:36.559Z,-4.20
2023-02-08T05:53:39.822Z,-4.30
2023-02-08T05:56:44.654Z,-4.30
2023-02-08T05:59:47.718Z,-4.30
2023-02-08T06:02:50.882Z,-4.30
2023-02-08T06:05:54.047Z,-4.30
2023-02-08T06:08:57.316Z,-4.30
2023-02-08T06:12:01.683Z,-4.30
2023-02-08T06:15:05.085Z,-4.30
2023-02-08T06:24:35.081Z,-4.40
2023-02-08T06:27:39.695Z,-4.40
2023-02-08T06:30:43.046Z,-4.40
2023-02-08T06:33:46.321Z,-4.50
2023-02-08T06:36:49.345Z,-4.40
2023-02-08T06:39:52.397Z,-4.40
2023-02-08T06:42:56.821Z,-4.40
2023-02-08T06:46:00.055Z,-4.40
2023-02-08T06:49:04.771Z,-4.30
2023-02-08T06:52:07.849Z,-4.40
2023-02-08T06:55:10.837Z,-4.30
2023-02-08T06:58:15.397Z,-4.30
2023-02-08T07:01:18.510Z,-4.20
2023-02-08T07:04:21.795Z,-4.20
2023-02-08T07:07:25.507Z,-4.10
2023-02-08T07:10:28.689Z,-4.10
2023-02-08T07:13:33.137Z,-4.00
2023-02-08T07:16:36.321Z,-4.10
2023-02-08T07:19:39.805Z,-4.10
2023-02-08T07:22:43.569Z,-4.10
2023-02-08T07:25:46.692Z,-4.10
2023-02-08T07:28:52.483Z,-4.00
2023-02-08T07:31:55.613Z,-4.00
2023-02-08T07:34:58.879Z,-3.90
2023-02-08T07:38:01.895Z,-3.80
2023-02-08T07:41:06.462Z,-3.80
2023-02-08T07:44:10.778Z,-3.70
2023-02-08T07:47:13.940Z,-3.60
2023-02-08T07:50:17.559Z,-3.60
2023-02-08T07:53:20.894Z,-3.60
2023-02-08T07:56:23.975Z,-3.40
2023-02-08T07:59:29.878Z,-3.40
2023-02-08T08:02:32.863Z,-3.20
2023-02-08T08:05:35.954Z,-3.10
2023-02-08T08:08:39.737Z,-2.90
2023-02-08T08:11:42.922Z,-2.80
2023-02-08T08:14:47.243Z,-2.80
2023-02-08T08:17:50.297Z,-2.80
2023-02-08T08:20:53.473Z,-2.70
2023-02-08T08:23:56.499Z,-2.60
2023-02-08T08:27:00.731Z,-2.60
2023-02-08T08:30:06.915Z,-2.60
2023-02-08T08:33:09.889Z,-2.50
2023-02-08T08:36:14.346Z,-2.40
2023-02-08T08:39:17.448Z,-2.40
2023-02-08T08:42:21.026Z,-2.30
2023-02-08T08:45:25.815Z,-2.20
2023-02-08T08:48:29.216Z,-2.10
2023-02-08T08:51:35.198Z,-2.00
2023-02-08T08:54:38.794Z,-1.80
2023-02-08T08:57:41.777Z,-1.70
2023-02-08T09:00:46.383Z,-1.60
2023-02-08T09:03:49.396Z,-1.50
2023-02-08T09:06:53.095Z,-1.40
2023-02-08T09:09:56.128Z,-1.50
2023-02-08T09:12:59.267Z,-1.50
2023-02-08T09:16:09.102Z,-1.60
2023-02-08T09:19:12.536Z,-1.60
2023-02-08T09:22:15.650Z,-1.50
2023-02-08T09:25:18.725Z,-1.50
2023-02-08T09:28:22.133Z,-1.10
2023-02-08T09:31:28.464Z,-0.90
2023-02-08T09:34:31.801Z,-0.80
2023-02-08T09:37:35.104Z,-0.60
2023-02-08T09:40:46.974Z,-0.50
2023-02-08T09:44:01.686Z,-0.40
2023-02-08T09:47:15.806Z,-0.20
2023-02-08T09:50:24.018Z,-0.10
2023-02-08T09:53:32.808Z,0.00
2023-02-08T09:56:40.631Z,0.00
2023-02-08T09:59:52.966Z,0.00
2023-02-08T10:03:01.203Z,0.00
2023-02-08T10:06:05.536Z,0.20
2023-02-08T10:09:14.814Z,0.20
2023-02-08T10:12:26.320Z,0.40
2023-02-08T10:15:37.487Z,0.50
2023-02-08T10:18:49.034Z,0.60
2023-02-08T10:22:04.091Z,0.30
2023-02-08T10:25:29.017Z,0.30
2023-02-08T10:28:55.525Z,0.20
2023-02-08T10:32:15.653Z,0.30
2023-02-08T10:35:27.398Z,0.40
2023-02-08T10:38:45.933Z,0.50
2023-02-08T10:41:50.095Z,0.60
2023-02-08T10:45:06.553Z,0.50
2023-02-08T10:48:21.525Z,0.60
2023-02-08T10:51:25.988Z,0.80
2023-02-08T10:54:28.963Z,0.80
2023-02-08T10:57:36.119Z,1.00
2023-02-08T11:00:41.002Z,1.00
2023-02-08T11:04:01.877Z,1.10
2023-02-08T11:07:21.001Z,1.20
2023-02-08T11:10:26.588Z,1.10
2023-02-08T11:13:36.712Z,0.90
2023-02-08T11:16:41.502Z,1.00
2023-02-08T11:19:46.353Z,1.10
2023-02-08T11:22:51.200Z,1.10
2023-02-08T11:25:55.572Z,1.00
2023-02-08T11:29:06.019Z,1.20
2023-02-08T11:32:19.433Z,1.30
2023-02-08T11:35:24.470Z,1.20
2023-02-08T11:38:29.637Z,1.30
2023-02-08T11:41:33.006Z,1.40
2023-02-08T11:44:38.126Z,1.40
2023-02-08T11:47:43.220Z,1.40
2023-02-08T11:50:46.232Z,1.40
2023-02-08T11:53:50.769Z,1.60
2023-02-08T11:57:03.802Z,1.90
2023-02-08T12:00:21.601Z,2.00
2023-02-08T12:03:31.149Z,2.00
2023-02-08T12:07:06.127Z,2.20
2023-02-08T12:10:19.548Z,2.10
2023-02-08T12:13:36.567Z,2.00
2023-02-08T12:17:00.520Z,2.00
2023-02-08T12:20:35.195Z,2.10
2023-02-08T12:23:57.648Z,2.00
2023-02-08T12:27:17.233Z,2.20
2023-02-08T12:30:28.374Z,2.30
2023-02-08T12:33:43.961Z,2.30
2023-02-08T12:37:18.749Z,2.40
2023-02-08T12:40:50.141Z,2.60
2023-02-08T12:44:02.367Z,2.40
2023-02-08T12:47:17.123Z,2.50
2023-02-08T12:50:28.052Z,2.30
2023-02-08T12:53:35.929Z,2.50
2023-02-08T12:56:46.605Z,2.50
2023-02-08T12:59:56.117Z,2.40
2023-02-08T13:03:07.367Z,2.40
2023-02-08T13:06:17.252Z,2.30
2023-02-08T13:09:35.387Z,2.10
2023-02-08T13:12:42.371Z,2.10
2023-02-08T13:15:53.138Z,2.00
2023-02-08T13:19:06.075Z,2.10
2023-02-08T13:22:09.569Z,2.10
2023-02-08T13:25:21.590Z,2.20
2023-02-08T13:28:26.872Z,2.30
2023-02-08T13:31:36.003Z,2.30
2023-02-08T13:34:44.716Z,2.30
2023-02-08T13:37:52.498Z,2.20
2023-02-08T13:41:16.405Z,2.20
2023-02-08T13:44:23.612Z,2.30
2023-02-08T13:47:30.842Z,2.40
2023-02-08T13:50:47.064Z,2.50
2023-02-08T13:54:13.419Z,2.50
2023-02-08T13:57:53.497Z,2.50
2023-02-08T14:01:14.943Z,2.40
2023-02-08T14:04:40.048Z,2.40
2023-02-08T14:07:46.140Z,2.50
2023-02-08T14:11:01.366Z,2.50
2023-02-08T14:14:07.156Z,2.40
2023-02-08T14:17:22.714Z,2.40
2023-02-08T14:20:30.656Z,2.50
2023-02-08T14:23:39.510Z,2.50
2023-02-08T14:26:43.686Z,2.40
2023-02-08T14:30:00.481Z,2.20
2023-02-08T14:33:20.029Z,2.20
2023-02-08T14:36:30.159Z,2.20
2023-02-08T14:39:35.450Z,2.30
2023-02-08T14:42:58.274Z,2.20
2023-02-08T14:46:34.412Z,2.10
2023-02-08T14:49:41.072Z,1.90
2023-02-08T14:52:53.607Z,1.90
2023-02-08T14:56:01.057Z,1.70
2023-02-08T14:59:09.052Z,1.80
2023-02-08T15:02:21.005Z,1.70
2023-02-08T15:05:26.318Z,1.60
2023-02-08T15:08:31.070Z,1.60
2023-02-08T15:11:35.561Z,1.50
2023-02-08T15:14:42.101Z,1.50
2023-02-08T15:17:48.180Z,1.40
2023-02-08T15:21:04.206Z,1.40
2023-02-08T15:24:16.827Z,1.30
2023-02-08T15:27:26.047Z,1.30
2023-02-08T15:30:40.588Z,1.20
2023-02-08T15:33:44.168Z,1.20
2023-02-08T15:36:51.266Z,1.00
2023-02-08T15:39:57.894Z,1.00
2023-02-08T15:43:05.891Z,0.90
2023-02-08T15:46:19.011Z,0.80
2023-02-08T15:49:27.847Z,0.80
2023-02-08T15:52:33.282Z,0.80
2023-02-08T15:55:48.203Z,0.60
2023-02-08T15:58:54.919Z,0.60
2023-02-08T16:02:01.686Z,0.60
2023-02-08T16:05:17.829Z,0.50
2023-02-08T16:08:24.336Z,0.40
2023-02-08T16:11:31.636Z,0.40
2023-02-08T16:14:51.608Z,0.30
2023-02-08T16:17:55.548Z,0.30
2023-02-08T16:20:59.347Z,0.20
2023-02-08T16:24:07.011Z,0.20
2023-02-08T16:27:24.920Z,0.10
2023-02-08T16:30:28.328Z,0.00
2023-02-08T16:33:32.577Z,0.00
2023-02-08T16:36:40.694Z,0.00
2023-02-08T16:40:02.407Z,0.00
2023-02-08T16:43:23.327Z,-0.10
2023-02-08T16:46:27.745Z,-0.10
2023-02-08T16:49:30.856Z,-0.10
2023-02-08T16:52:34.605Z,-0.10
2023-02-08T16:55:38.500Z,-0.20
2023-02-08T16:58:48.494Z,-0.20
2023-02-08T17:01:51.580Z,-0.30
2023-02-08T17:04:54.658Z,-0.30
2023-02-08T17:07:59.010Z,-0.30
2023-02-08T17:11:05.076Z,-0.30
2023-02-08T17:14:10.109Z,-0.40
2023-02-08T17:17:13.499Z,-0.30
2023-02-08T17:20:22.302Z,-0.40
2023-02-08T17:23:25.301Z,-0.50
2023-02-08T17:26:30.482Z,-0.50
2023-02-08T17:29:34.869Z,-0.50
2023-02-08T17:32:37.921Z,-0.60
2023-02-08T17:35:41.177Z,-0.60
2023-02-08T17:38:45.532Z,-0.60
2023-02-08T17:41:48.688Z,-0.70
2023-02-08T17:44:53.234Z,-0.70
2023-02-08T17:47:57.291Z,-0.70
2023-02-08T17:51:00.424Z,-0.70
2023-02-08T17:54:05.816Z,-0.70
2023-02-08T17:57:08.930Z,-0.70
2023-02-08T18:00:16.887Z,-0.90
2023-02-08T18:03:20.461Z,-0.80
2023-02-08T18:06:25.045Z,-0.80
2023-02-08T18:09:29.616Z,-0.90
2023-02-08T18:12:32.848Z,-0.90
2023-02-08T18:15:37.733Z,-1.00
2023-02-08T18:18:41.384Z,-1.00
2023-02-08T18:21:44.934Z,-1.00
2023-02-08T18:24:48.315Z,-1.00
2023-02-08T18:27:51.539Z,-1.10
2023-02-08T18:31:02.422Z,-1.10
2023-02-08T18:34:05.970Z,-1.10
2023-02-08T18:37:11.788Z,-1.10
2023-02-08T18:40:15.052Z,-1.10
2023-02-08T18:43:18.585Z,-1.10
2023-02-08T18:46:24.690Z,-1.10
2023-02-08T18:49:27.800Z,-1.10
2023-02-08T18:52:31.868Z,-1.20
2023-02-08T18:55:35.182Z,-1.30
2023-02-08T18:58:39.561Z,-1.30
2023-02-08T19:01:48.729Z,-1.40
2023-02-08T19:04:53.181Z,-1.30
2023-02-08T19:07:57.415Z,-1.50
2023-02-08T19:11:05.011Z,-1.50
2023-02-08T19:14:11.860Z,-1.50
2023-02-08T19:17:17.061Z,-1.50
2023-02-08T19:20:21.613Z,-1.50
2023-02-08T19:23:26.604Z,-1.50
2023-02-08T19:26:36.675Z,-1.50
2023-02-08T19:29:41.672Z,-1.50
2023-02-08T19:32:46.549Z,-1.50
2023-02-08T19:35:50.048Z,-1.60
2023-02-08T19:38:54.064Z,-1.60
2023-02-08T19:41:58.818Z,-1.60
2023-02-08T19:45:02.612Z,-1.60
2023-02-08T19:48:07.300Z,-1.60
2023-02-08T19:51:10.603Z,-1.70
2023-02-08T19:54:15.974Z,-1.70
2023-02-08T19:57:19.202Z,-1.70
2023-02-08T20:00:24.261Z,-1.70
2023-02-08T20:03:29.000Z,-1.80
2023-02-08T20:06:34.019Z,-1.80
2023-02-08T20:09:37.701Z,-1.80
2023-02-08T20:12:40.873Z,-1.80
2023-02-08T20:15:44.991Z,-1.80
2023-02-08T20:18:50.336Z,-1.80
2023-02-08T20:21:54.220Z,-1.90
2023-02-08T20:24:57.509Z,-1.80
2023-02-08T20:28:01.275Z,-1.80
2023-02-08T20:31:09.078Z,-1.80
2023-02-08T20:34:15.769Z,-1.90
2023-02-08T20:37:21.110Z,-1.90
2023-02-08T20:40:24.319Z,-1.90
2023-02-08T20:43:27.731Z,-1.90
2023-02-08T20:46:33.843Z,-1.90
2023-02-08T20:49:39.490Z,-2.10
2023-02-08T20:52:45.031Z,-2.00
2023-02-08T20:55:48.316Z,-2.10
2023-02-08T20:58:51.975Z,-2.10
2023-02-08T21:01:55.946Z,-2.10
2023-02-08T21:05:00.621Z,-2.10
2023-02-08T21:08:03.897Z,-2.10
2023-02-08T21:11:07.589Z,-2.10
2023-02-08T21:14:13.737Z,-2.10
2023-02-08T21:17:16.935Z,-2.10
2023-02-08T21:20:21.988Z,-2.20
2023-02-08T21:23:25.375Z,-2.20
2023-02-08T21:26:28.880Z,-2.20
2023-02-08T21:29:32.669Z,-2.20
2023-02-08T21:32:35.977Z,-2.20
2023-02-08T21:35:40.894Z,-2.30
2023-02-08T21:38:44.662Z,-2.30
2023-02-08T21:41:48.321Z,-2.30
2023-02-08T21:44:51.582Z,-2.30
2023-02-08T21:47:54.783Z,-2.30
2023-02-08T21:51:20.314Z,-2.40
2023-02-08T21:54:44.695Z,-2.40
2023-02-08T21:57:48.098Z,-2.40
2023-02-08T22:00:51.409Z,-2.40
2023-02-08T22:03:54.744Z,-2.40
2023-02-08T22:06:59.532Z,-2.40
2023-02-08T22:10:07.261Z,-2.40
2023-02-08T22:13:10.470Z,-2.40
2023-02-08T22:16:14.118Z,-2.40
2023-02-08T22:19:17.842Z,-2.40
2023-02-08T22:22:22.434Z,-2.40
2023-02-08T22:25:26.012Z,-2.40
2023-02-08T22:28:29.494Z,-2.40
2023-02-08T22:31:33.034Z,-2.50
2023-02-08T22:34:38.145Z,-2.50
2023-02-08T22:37:42.963Z,-2.60
2023-02-08T22:40:46.477Z,-2.60
2023-02-08T22:43:50.729Z,-2.50
2023-02-08T22:46:54.375Z,-2.60
2023-02-08T22:49:58.984Z,-2.60
2023-02-08T22:53:03.805Z,-2.60
2023-02-08T22:56:07.557Z,-2.60
2023-02-08T22:59:11.101Z,-2.70
2023-02-08T23:02:17.159Z,-2.70
2023-02-08T23:05:20.424Z,-2.70
2023-02-08T23:08:25.180Z,-2.70
2023-02-08T23:11:31.738Z,-2.70
2023-02-08T23:14:35.832Z,-2.70
2023-02-08T23:17:43.239Z,-2.70
2023-02-08T23:20:47.841Z,-2.70
2023-02-08T23:23:56.369Z,-2.80
2023-02-08T23:26:59.999Z,-2.80
2023-02-08T23:30:04.427Z,-2.80
2023-02-08T23:33:08.593Z,-2.80
2023-02-08T23:36:15.724Z,-2.80
2023-02-08T23:39:20.833Z,-2.80
2023-02-08T23:42:27.199Z,-2.80
2023-02-08T23:45:30.697Z,-2.80
2023-02-08T23:48:34.251Z,-2.80
2023-02-08T23:51:37.721Z,-2.80
2023-02-08T23:54:42.476Z,-2.80
2023-02-08T23:57:47.893Z,-2.90
